Time;durP1;ratioP1;P1;durP2;ratioP2;P2;SDS_P1;SDS_P2;PMS_P1;PMS_P2;Temp;Humidity;BMP_temperature;BMP_pressure;BME280_temperature;BME280_humidity;BME280_pressure;Samples;Min_cycle;Max_cycle;Signal;HPM_P1;HPM_P2
2023/10/08 00:00:49;;;;;;;5.03;3.73;;;14.00;99.90;;;;;;480688;246;28704;-72
2023/10/08 00:02:48;;;;;;;6.23;4.07;;;14.00;99.90;;;;;;480573;247;28500;-74
2023/10/08 00:04:54;;;;;;;9.70;4.70;;;14.00;99.90;;;;;;480593;247;28320;-72
2023/10/08 00:06:52;;;;;;;7.00;3.93;;;14.00;99.90;;;;;;480633;246;28157;-73
2023/10/08 00:08:59;;;;;;;5.70;3.60;;;14.00;99.90;;;;;;480581;247;28220;-72
2023/10/08 00:10:53;;;;;;;7.70;4.07;;;14.00;99.90;;;;;;480527;247;28275;-72
2023/10/08 00:12:55;;;;;;;6.17;3.80;;;13.90;99.90;;;;;;480602;247;28363;-73
2023/10/08 00:14:59;;;;;;;6.47;3.77;;;13.90;99.90;;;;;;480581;247;28247;-72
2023/10/08 00:16:57;;;;;;;6.37;3.83;;;13.80;99.90;;;;;;480556;247;28252;-72
2023/10/08 00:19:03;;;;;;;4.80;3.50;;;13.80;99.90;;;;;;480586;247;28687;-72
2023/10/08 00:21:26;;;;;;;5.93;3.53;;;13.90;99.90;;;;;;480558;247;28889;-72
2023/10/08 00:23:02;;;;;;;5.87;3.90;;;13.90;99.90;;;;;;480971;246;28850;-73
2023/10/08 00:25:04;;;;;;;6.40;4.23;;;13.90;99.90;;;;;;480601;247;28625;-72
2023/10/08 00:27:06;;;;;;;8.23;5.37;;;13.90;99.90;;;;;;480563;247;28177;-72
2023/10/08 00:29:21;;;;;;;5.50;3.90;;;13.90;99.90;;;;;;480587;247;28531;-72
2023/10/08 00:31:18;;;;;;;10.07;4.63;;;13.80;99.90;;;;;;480576;247;28195;-73
2023/10/08 00:33:20;;;;;;;5.03;3.73;;;;;;;;;;480573;247;28201;-73
2023/10/08 00:35:22;;;;;;;10.20;5.07;;;13.80;99.90;;;;;;480612;246;26554;-72
2023/10/08 00:37:26;;;;;;;6.00;4.40;;;13.80;99.90;;;;;;480628;247;28329;-74
2023/10/08 00:39:24;;;;;;;7.30;4.90;;;13.70;99.90;;;;;;480612;247;28265;-72
2023/10/08 00:41:28;;;;;;;8.30;4.90;;;13.70;99.90;;;;;;480626;247;28183;-72
2023/10/08 00:43:27;;;;;;;7.67;4.10;;;13.70;99.90;;;;;;480627;247;28129;-72
2023/10/08 00:45:30;;;;;;;5.33;3.63;;;13.60;99.90;;;;;;480562;247;28268;-73
2023/10/08 00:47:30;;;;;;;7.20;4.27;;;13.60;99.90;;;;;;480597;247;28164;-73
2023/10/08 00:51:45;;;;;;;7.23;4.47;;;13.60;99.90;;;;;;480652;247;28750;-72
2023/10/08 00:53:45;;;;;;;5.17;3.50;;;13.60;99.90;;;;;;480617;247;28666;-74
2023/10/08 00:55:53;;;;;;;6.60;4.00;;;13.60;99.90;;;;;;480622;247;28207;-72
2023/10/08 00:57:52;;;;;;;6.07;3.80;;;13.60;99.90;;;;;;480485;247;28319;-73
2023/10/08 00:59:56;;;;;;;7.30;4.47;;;13.60;99.90;;;;;;480596;247;28267;-72
2023/10/08 01:02:07;;;;;;;6.07;3.83;;;13.60;99.90;;;;;;480631;247;28144;-72
2023/10/08 01:04:11;;;;;;;9.87;3.70;;;13.50;99.90;;;;;;480635;246;29374;-72
2023/10/08 01:06:04;;;;;;;4.40;3.40;;;13.50;99.90;;;;;;480583;247;28652;-72
2023/10/08 01:08:06;;;;;;;7.83;3.80;;;13.50;99.90;;;;;;480631;247;28745;-73
2023/10/08 01:10:10;;;;;;;7.97;4.20;;;13.50;99.90;;;;;;480628;247;28113;-72
2023/10/08 01:12:09;;;;;;;6.93;3.93;;;13.50;99.90;;;;;;480600;247;28153;-72
2023/10/08 01:14:09;;;;;;;6.73;4.00;;;13.40;99.90;;;;;;480603;247;28794;-74
2023/10/08 01:16:10;;;;;;;5.87;3.80;;;13.40;99.90;;;;;;480613;247;28560;-73
2023/10/08 01:18:15;;;;;;;6.47;3.87;;;13.40;99.90;;;;;;480616;247;28247;-72
2023/10/08 01:20:33;;;;;;;7.77;3.77;;;13.40;99.90;;;;;;480542;247;29451;-73
2023/10/08 01:22:25;;;;;;;7.20;3.77;;;13.30;99.90;;;;;;480462;247;28408;-72
2023/10/08 01:24:27;;;;;;;7.00;3.57;;;;;;;;;;480508;247;28906;-72
2023/10/08 01:26:30;;;;;;;7.03;4.30;;;13.30;99.90;;;;;;480566;242;27130;-72
2023/10/08 01:28:31;;;;;;;5.00;3.70;;;13.30;99.90;;;;;;480555;247;28824;-72
2023/10/08 01:30:37;;;;;;;8.47;4.20;;;13.30;99.90;;;;;;480599;247;28289;-72
2023/10/08 01:32:34;;;;;;;7.03;4.30;;;;;;;;;;480537;247;28236;-72
2023/10/08 01:34:36;;;;;;;8.07;4.53;;;13.30;99.90;;;;;;480615;246;26683;-74
2023/10/08 01:36:37;;;;;;;6.97;3.73;;;13.30;99.90;;;;;;480581;247;28724;-72
2023/10/08 01:38:39;;;;;;;11.17;4.73;;;13.40;99.90;;;;;;480637;247;28711;-72
2023/10/08 01:40:39;;;;;;;8.10;4.50;;;13.30;99.90;;;;;;480658;247;28881;-72
2023/10/08 01:42:41;;;;;;;5.50;4.40;;;13.30;99.90;;;;;;480662;247;28125;-72
2023/10/08 01:44:45;;;;;;;7.30;3.80;;;13.30;99.90;;;;;;480675;247;28227;-73
2023/10/08 01:46:43;;;;;;;10.27;4.97;;;13.30;99.90;;;;;;480639;247;28106;-72
2023/10/08 01:48:46;;;;;;;5.17;3.60;;;;;;;;;;480652;247;28639;-73
2023/10/08 01:50:47;;;;;;;7.57;4.60;;;13.40;99.90;;;;;;480671;247;27909;-72
2023/10/08 01:52:48;;;;;;;12.50;4.57;;;13.40;99.90;;;;;;480640;247;28355;-73
2023/10/08 01:54:49;;;;;;;10.90;4.63;;;13.40;99.90;;;;;;480637;247;28259;-72
2023/10/08 01:56:51;;;;;;;5.80;3.67;;;13.30;99.90;;;;;;480662;247;28279;-72
2023/10/08 01:58:52;;;;;;;7.30;3.30;;;13.30;99.90;;;;;;480663;247;28379;-74
2023/10/08 02:00:54;;;;;;;7.30;4.27;;;13.40;99.90;;;;;;480661;247;28238;-72
2023/10/08 02:02:54;;;;;;;7.60;3.80;;;13.30;99.90;;;;;;480534;247;28893;-73
2023/10/08 02:04:56;;;;;;;4.50;3.40;;;13.30;99.90;;;;;;480644;247;28246;-72
2023/10/08 02:06:58;;;;;;;4.50;3.50;;;13.20;99.90;;;;;;480601;247;28566;-72
2023/10/08 02:08:58;;;;;;;8.77;4.70;;;13.30;99.90;;;;;;480593;247;28762;-72
2023/10/08 02:10:59;;;;;;;5.90;4.47;;;13.20;99.90;;;;;;480647;247;28739;-72
2023/10/08 02:13:01;;;;;;;6.93;4.00;;;13.20;99.90;;;;;;480633;247;28654;-72
2023/10/08 02:15:03;;;;;;;4.40;3.63;;;;;;;;;;480623;247;29193;-72
2023/10/08 02:17:06;;;;;;;4.60;3.50;;;13.20;99.90;;;;;;480660;246;27137;-72
2023/10/08 02:19:06;;;;;;;7.03;4.57;;;13.20;99.90;;;;;;480445;246;28851;-73
2023/10/08 02:21:10;;;;;;;7.73;4.40;;;13.20;99.90;;;;;;480573;247;28636;-72
2023/10/08 02:23:08;;;;;;;10.47;4.10;;;13.20;99.90;;;;;;480568;247;29396;-73
2023/10/08 02:25:11;;;;;;;7.13;4.47;;;13.20;99.90;;;;;;480606;247;28810;-72
2023/10/08 02:27:11;;;;;;;5.30;3.67;;;13.10;99.90;;;;;;480637;247;28357;-74
2023/10/08 02:29:12;;;;;;;7.57;3.83;;;13.10;99.90;;;;;;480614;247;28156;-72
2023/10/08 02:31:13;;;;;;;9.50;4.20;;;13.10;99.90;;;;;;480584;247;28359;-72
2023/10/08 02:33:15;;;;;;;12.20;3.67;;;13.10;99.90;;;;;;480643;247;28412;-73
2023/10/08 02:35:16;;;;;;;5.33;3.70;;;13.10;99.90;;;;;;480649;247;28657;-72
2023/10/08 02:37:17;;;;;;;5.40;3.70;;;13.10;99.90;;;;;;480649;247;28488;-73
2023/10/08 02:39:25;;;;;;;6.50;4.23;;;;;;;;;;480634;247;28837;-72
2023/10/08 02:41:24;;;;;;;6.10;4.17;;;13.00;99.90;;;;;;480826;243;27831;-72
2023/10/08 02:43:25;;;;;;;6.60;3.70;;;13.00;99.90;;;;;;480643;247;28297;-73
2023/10/08 02:45:26;;;;;;;9.20;4.23;;;13.00;99.90;;;;;;480668;247;28132;-73
2023/10/08 02:47:28;;;;;;;5.63;4.33;;;13.00;99.90;;;;;;480641;247;28298;-73
2023/10/08 02:49:31;;;;;;;5.60;4.13;;;12.90;99.90;;;;;;480620;247;28297;-72
2023/10/08 02:51:30;;;;;;;7.30;3.90;;;13.00;99.90;;;;;;480570;247;28047;-73
2023/10/08 02:53:31;;;;;;;7.37;4.70;;;13.00;99.90;;;;;;480627;247;28500;-72
2023/10/08 02:55:35;;;;;;;5.83;4.43;;;13.00;99.90;;;;;;480632;247;28449;-72
2023/10/08 02:57:36;;;;;;;6.20;4.10;;;12.90;99.90;;;;;;480610;247;28690;-72
2023/10/08 02:59:40;;;;;;;6.00;3.57;;;13.00;99.90;;;;;;480596;247;28542;-73
2023/10/08 03:01:41;;;;;;;6.00;3.90;;;12.90;99.90;;;;;;480617;247;28300;-73
2023/10/08 03:03:43;;;;;;;7.10;3.80;;;12.90;99.90;;;;;;480611;247;28808;-74
2023/10/08 03:05:45;;;;;;;9.90;3.90;;;12.90;99.90;;;;;;480611;247;29117;-72
2023/10/08 03:07:51;;;;;;;5.60;4.47;;;;;;;;;;480610;247;28825;-72
2023/10/08 03:09:49;;;;;;;8.13;4.20;;;12.80;99.90;;;;;;480892;242;26910;-72
2023/10/08 03:11:49;;;;;;;11.13;3.83;;;12.80;99.90;;;;;;480633;247;28365;-73
2023/10/08 03:13:51;;;;;;;6.53;4.20;;;12.80;99.90;;;;;;480625;247;28363;-72
2023/10/08 03:18:09;;;;;;;6.07;3.40;;;12.80;99.90;;;;;;480616;247;28263;-72
2023/10/08 03:20:29;;;;;;;4.37;3.40;;;12.80;99.90;;;;;;480550;247;28241;-72
2023/10/08 03:22:04;;;;;;;5.63;3.60;;;12.80;99.90;;;;;;480519;247;28575;-73
2023/10/08 03:28:35;;;;;;;7.83;4.20;;;12.80;99.90;;;;;;480567;247;28440;-72
2023/10/08 03:30:48;;;;;;;5.70;4.03;;;12.80;99.90;;;;;;480628;247;28791;-73
2023/10/08 03:32:42;;;;;;;5.90;4.30;;;12.80;99.90;;;;;;480627;247;28356;-72
2023/10/08 03:34:43;;;;;;;6.63;4.33;;;12.80;99.90;;;;;;480648;247;28143;-72
2023/10/08 03:36:46;;;;;;;5.57;4.30;;;12.70;99.90;;;;;;480608;247;28221;-72
2023/10/08 03:38:50;;;;;;;5.60;3.93;;;12.70;99.90;;;;;;480615;247;28107;-74
2023/10/08 03:40:56;;;;;;;7.00;3.43;;;12.70;99.90;;;;;;480607;247;28418;-72
2023/10/08 03:42:55;;;;;;;4.80;3.77;;;12.70;99.90;;;;;;480584;247;28389;-73
2023/10/08 03:44:56;;;;;;;6.03;3.80;;;12.70;99.90;;;;;;480514;247;28647;-73
2023/10/08 03:46:57;;;;;;;9.73;4.33;;;12.70;99.90;;;;;;480583;247;28847;-72
2023/10/08 03:48:57;;;;;;;6.30;3.93;;;12.60;99.90;;;;;;480589;247;28586;-73
2023/10/08 03:51:06;;;;;;;5.97;3.87;;;12.60;99.90;;;;;;480588;247;28109;-72
2023/10/08 03:53:02;;;;;;;5.93;4.20;;;12.60;99.90;;;;;;480575;247;28426;-72
2023/10/08 03:57:26;;;;;;;6.07;3.90;;;12.60;99.90;;;;;;480596;247;28815;-72
2023/10/08 03:59:31;;;;;;;4.90;3.83;;;12.60;99.90;;;;;;480600;247;28582;-72
2023/10/08 04:01:24;;;;;;;8.30;4.23;;;12.50;99.90;;;;;;480690;246;28299;-72
2023/10/08 04:03:42;;;;;;;12.57;3.63;;;12.50;99.90;;;;;;480579;246;28481;-73
2023/10/08 04:05:32;;;;;;;7.50;4.10;;;12.50;99.90;;;;;;480540;247;28775;-73
2023/10/08 04:09:31;;;;;;;9.50;4.57;;;12.50;99.90;;;;;;482367;246;28148;-73
2023/10/08 04:11:35;;;;;;;9.30;5.37;;;12.50;99.90;;;;;;480613;247;28314;-72
2023/10/08 04:13:32;;;;;;;5.40;3.60;;;12.50;99.90;;;;;;480578;247;28573;-72
2023/10/08 04:15:34;;;;;;;5.40;3.90;;;12.50;99.90;;;;;;480610;247;28568;-73
2023/10/08 04:17:45;;;;;;;5.23;3.40;;;12.50;99.90;;;;;;480589;247;28013;-72
2023/10/08 04:19:36;;;;;;;9.03;4.57;;;12.40;99.90;;;;;;480719;246;28585;-72
2023/10/08 04:21:39;;;;;;;6.20;3.80;;;12.50;99.90;;;;;;480572;247;28427;-72
2023/10/08 04:23:39;;;;;;;4.60;3.77;;;12.40;99.90;;;;;;480564;247;28372;-72
2023/10/08 04:25:42;;;;;;;10.03;4.90;;;12.50;99.90;;;;;;480599;247;28491;-73
2023/10/08 04:27:41;;;;;;;7.67;4.23;;;12.40;99.90;;;;;;480602;247;28802;-72
2023/10/08 04:29:42;;;;;;;6.23;4.23;;;12.50;99.90;;;;;;480588;247;29292;-72
2023/10/08 04:31:44;;;;;;;8.00;4.47;;;12.40;99.90;;;;;;480608;247;28715;-72
2023/10/08 04:33:46;;;;;;;11.67;4.40;;;12.40;99.90;;;;;;480594;247;28780;-72
2023/10/08 04:35:55;;;;;;;5.10;3.90;;;12.40;99.90;;;;;;480554;247;28083;-73
2023/10/08 04:37:55;;;;;;;8.30;4.50;;;12.40;99.90;;;;;;480559;247;28338;-72
2023/10/08 04:39:59;;;;;;;9.33;4.47;;;12.40;99.90;;;;;;480612;247;28884;-72
2023/10/08 04:42:02;;;;;;;9.23;4.70;;;12.40;99.90;;;;;;480609;247;29037;-72
2023/10/08 04:43:57;;;;;;;7.17;4.90;;;12.30;99.90;;;;;;480603;247;28848;-72
2023/10/08 04:45:58;;;;;;;4.50;3.77;;;12.40;99.90;;;;;;480662;247;29285;-72
2023/10/08 04:48:00;;;;;;;6.70;4.40;;;12.40;99.90;;;;;;480649;247;28802;-73
2023/10/08 04:50:04;;;;;;;5.80;3.97;;;12.40;99.90;;;;;;480625;247;28369;-72
2023/10/08 04:52:25;;;;;;;5.93;3.87;;;12.30;99.90;;;;;;480608;247;28271;-73
2023/10/08 04:54:05;;;;;;;8.03;3.80;;;12.30;99.90;;;;;;480915;246;28210;-72
2023/10/08 04:56:23;;;;;;;6.80;4.20;;;12.30;99.90;;;;;;480606;247;28391;-72
2023/10/08 04:58:19;;;;;;;6.13;4.00;;;12.30;99.90;;;;;;480910;246;28862;-73
2023/10/08 05:00:15;;;;;;;6.53;4.63;;;12.20;99.90;;;;;;480602;247;28331;-72
2023/10/08 05:02:26;;;;;;;8.83;4.50;;;12.20;99.90;;;;;;480620;247;28376;-72
2023/10/08 05:04:26;;;;;;;7.87;5.33;;;12.20;99.90;;;;;;480623;246;28360;-72
2023/10/08 05:08:58;;;;;;;7.50;4.60;;;12.20;99.90;;;;;;480641;247;28688;-73
2023/10/08 05:11:00;;;;;;;10.20;5.07;;;12.20;99.90;;;;;;480560;246;28587;-72
2023/10/08 05:13:01;;;;;;;9.17;5.03;;;12.20;99.90;;;;;;480530;246;28549;-72
2023/10/08 05:17:11;;;;;;;8.03;5.27;;;12.20;99.90;;;;;;480607;247;28866;-72
2023/10/08 05:21:51;;;;;;;6.97;3.97;;;12.10;99.90;;;;;;480559;247;28240;-72
2023/10/08 05:23:53;;;;;;;6.63;4.33;;;12.00;99.90;;;;;;480561;247;28325;-73
2023/10/08 05:25:57;;;;;;;8.60;5.03;;;12.00;99.90;;;;;;480574;247;28313;-72
2023/10/08 05:28:09;;;;;;;11.33;5.63;;;12.00;99.90;;;;;;480574;246;29214;-72
2023/10/08 05:29:51;;;;;;;7.00;4.17;;;12.00;99.90;;;;;;480968;246;28489;-72
2023/10/08 05:31:53;;;;;;;8.60;4.67;;;12.00;99.90;;;;;;480583;245;28786;-72
2023/10/08 05:36:18;;;;;;;7.27;4.63;;;12.00;99.90;;;;;;480642;245;28599;-72
2023/10/08 05:43:01;;;;;;;6.07;4.30;;;12.00;99.90;;;;;;480629;247;28178;-75
2023/10/08 05:45:35;;;;;;;10.10;4.10;;;12.00;99.90;;;;;;480588;247;28229;-72
2023/10/08 05:49:15;;;;;;;4.93;4.10;;;11.90;99.90;;;;;;480618;247;28306;-72
2023/10/08 05:51:13;;;;;;;7.33;5.10;;;12.00;99.90;;;;;;480588;247;28859;-72
2023/10/08 05:53:19;;;;;;;11.63;5.63;;;11.90;99.90;;;;;;480587;247;28279;-72
2023/10/08 05:55:17;;;;;;;6.70;4.30;;;11.90;99.90;;;;;;480563;247;28335;-73
2023/10/08 05:59:18;;;;;;;9.10;5.60;;;11.90;99.90;;;;;;480618;246;28670;-73
2023/10/08 06:01:39;;;;;;;5.73;4.13;;;11.90;99.90;;;;;;480606;247;28321;-72
2023/10/08 06:05:47;;;;;;;7.30;4.70;;;11.80;99.90;;;;;;480627;247;28309;-73
2023/10/08 06:07:56;;;;;;;4.80;3.97;;;11.80;99.90;;;;;;480611;247;28488;-74
2023/10/08 06:10:26;;;;;;;9.40;5.67;;;11.80;99.90;;;;;;480585;247;28764;-72
2023/10/08 06:12:19;;;;;;;6.90;4.27;;;11.80;99.90;;;;;;480560;247;28690;-74
2023/10/08 06:14:16;;;;;;;6.80;4.67;;;11.80;99.90;;;;;;480588;247;28290;-72
2023/10/08 06:16:31;;;;;;;5.43;4.53;;;11.90;99.90;;;;;;480612;247;28217;-72
2023/10/08 06:18:17;;;;;;;6.13;4.67;;;11.90;99.90;;;;;;480549;247;28907;-72
2023/10/08 06:20:24;;;;;;;8.13;5.10;;;11.90;99.90;;;;;;480607;247;28809;-74
2023/10/08 06:22:20;;;;;;;7.43;4.77;;;11.90;99.90;;;;;;480567;247;28791;-72
2023/10/08 06:24:20;;;;;;;4.60;4.10;;;11.90;99.90;;;;;;480640;247;28339;-72
2023/10/08 06:26:24;;;;;;;5.90;3.90;;;11.90;99.90;;;;;;480653;247;28212;-72
2023/10/08 06:28:25;;;;;;;8.47;4.77;;;12.00;99.90;;;;;;480417;247;28150;-72
2023/10/08 06:30:28;;;;;;;4.23;3.60;;;12.00;99.90;;;;;;480622;247;28172;-72
2023/10/08 06:32:25;;;;;;;6.03;3.67;;;12.00;99.90;;;;;;480585;247;28125;-72
2023/10/08 06:34:27;;;;;;;5.80;3.83;;;12.00;99.90;;;;;;480615;247;28375;-72
2023/10/08 06:36:29;;;;;;;7.53;4.17;;;12.10;99.90;;;;;;480622;247;28394;-72
2023/10/08 06:38:30;;;;;;;7.87;4.17;;;12.00;99.90;;;;;;480606;247;28425;-73
2023/10/08 06:42:40;;;;;;;6.40;3.73;;;12.10;99.90;;;;;;480632;246;28280;-73
2023/10/08 06:44:53;;;;;;;6.50;4.07;;;12.10;99.90;;;;;;480621;247;28542;-72
2023/10/08 06:46:43;;;;;;;5.40;3.77;;;12.20;99.90;;;;;;480791;246;28203;-72
2023/10/08 06:48:45;;;;;;;5.13;3.47;;;12.20;99.90;;;;;;480640;247;28369;-73
2023/10/08 06:50:45;;;;;;;5.90;4.10;;;12.30;99.90;;;;;;480617;247;28362;-72
2023/10/08 06:52:49;;;;;;;5.00;4.03;;;12.30;99.90;;;;;;480653;247;28636;-72
2023/10/08 06:54:48;;;;;;;4.07;3.27;;;12.30;99.90;;;;;;480607;247;29466;-73
2023/10/08 06:56:55;;;;;;;5.10;4.10;;;12.40;99.90;;;;;;480626;247;28561;-72
2023/10/08 06:58:56;;;;;;;15.40;5.23;;;12.40;99.90;;;;;;480651;247;28363;-74
2023/10/08 07:00:58;;;;;;;8.50;4.13;;;12.50;99.90;;;;;;480641;247;28287;-72
2023/10/08 07:02:58;;;;;;;6.70;4.17;;;12.50;99.90;;;;;;480614;247;28487;-72
2023/10/08 07:05:04;;;;;;;7.50;4.90;;;12.60;99.90;;;;;;480613;247;27998;-72
2023/10/08 07:07:01;;;;;;;4.50;3.97;;;12.70;99.90;;;;;;480570;247;28822;-72
2023/10/08 07:09:05;;;;;;;5.30;3.80;;;12.70;99.90;;;;;;480657;247;28515;-73
2023/10/08 07:11:11;;;;;;;10.60;4.20;;;12.80;99.90;;;;;;480637;245;28899;-72
2023/10/08 07:13:08;;;;;;;7.10;4.17;;;12.80;99.90;;;;;;480621;247;28818;-72
2023/10/08 07:15:12;;;;;;;6.30;4.57;;;12.90;99.90;;;;;;480615;247;28499;-72
2023/10/08 07:17:19;;;;;;;11.87;5.50;;;12.90;99.90;;;;;;480596;247;28817;-73
2023/10/08 07:19:17;;;;;;;7.37;4.60;;;12.90;99.90;;;;;;480592;247;28725;-72
2023/10/08 07:21:18;;;;;;;7.63;4.30;;;13.00;99.90;;;;;;480622;247;28269;-73
2023/10/08 07:23:20;;;;;;;7.60;4.40;;;13.00;99.90;;;;;;480627;247;28144;-72
2023/10/08 07:25:21;;;;;;;6.13;4.03;;;13.00;99.90;;;;;;480599;245;28387;-73
2023/10/08 07:27:29;;;;;;;6.47;4.20;;;13.10;99.90;;;;;;480599;247;28348;-72
2023/10/08 07:29:25;;;;;;;7.60;4.90;;;13.10;99.90;;;;;;480601;247;28219;-72
2023/10/08 07:31:28;;;;;;;6.50;4.30;;;13.10;99.90;;;;;;480609;247;28179;-73
2023/10/08 07:33:36;;;;;;;6.83;4.70;;;13.10;99.90;;;;;;480591;247;28492;-72
2023/10/08 07:35:29;;;;;;;8.77;5.20;;;13.10;99.90;;;;;;480559;247;28370;-72
2023/10/08 07:37:32;;;;;;;8.57;4.60;;;;;;;;;;480583;247;28157;-72
2023/10/08 07:41:33;;;;;;;7.80;5.13;;;13.20;99.90;;;;;;480586;247;28962;-72
2023/10/08 07:43:33;;;;;;;7.50;5.00;;;13.20;99.90;;;;;;480572;247;28333;-72
2023/10/08 07:45:35;;;;;;;5.67;4.47;;;13.30;99.90;;;;;;480573;247;28161;-72
2023/10/08 07:47:36;;;;;;;6.27;4.30;;;13.30;99.90;;;;;;480565;247;28377;-72
2023/10/08 07:49:37;;;;;;;7.00;5.03;;;13.30;99.90;;;;;;480613;247;28243;-72
2023/10/08 07:51:38;;;;;;;6.07;4.20;;;13.30;99.90;;;;;;480629;247;29627;-72
2023/10/08 07:53:41;;;;;;;9.40;4.57;;;13.40;99.90;;;;;;480609;247;28795;-72
2023/10/08 07:55:41;;;;;;;7.60;4.17;;;13.40;99.90;;;;;;480589;247;28652;-73
2023/10/08 07:57:42;;;;;;;5.93;4.63;;;13.50;99.90;;;;;;480524;247;28813;-72
2023/10/08 07:59:46;;;;;;;6.87;4.17;;;13.50;99.90;;;;;;480612;247;28271;-72
2023/10/08 08:01:45;;;;;;;7.03;3.90;;;13.50;99.90;;;;;;480582;246;28152;-72
2023/10/08 08:03:48;;;;;;;6.83;4.20;;;13.50;99.90;;;;;;480611;247;28382;-72
2023/10/08 08:05:48;;;;;;;6.70;4.40;;;13.60;99.90;;;;;;480592;247;28310;-73
2023/10/08 08:07:52;;;;;;;5.33;4.10;;;13.60;99.90;;;;;;480586;247;28236;-73
2023/10/08 08:09:58;;;;;;;6.43;3.90;;;13.60;99.90;;;;;;480639;247;28204;-72
2023/10/08 08:11:57;;;;;;;10.20;4.20;;;13.60;99.90;;;;;;480570;247;28158;-72
2023/10/08 08:13:55;;;;;;;6.53;4.20;;;13.60;99.90;;;;;;480608;247;28482;-73
2023/10/08 08:15:58;;;;;;;6.93;4.87;;;13.60;99.90;;;;;;480590;247;28266;-72
2023/10/08 08:17:58;;;;;;;8.77;4.67;;;13.70;99.90;;;;;;480565;247;28369;-72
2023/10/08 08:19:59;;;;;;;6.60;4.10;;;13.70;99.90;;;;;;480623;247;28487;-72
2023/10/08 08:22:02;;;;;;;5.73;4.17;;;13.80;99.90;;;;;;480571;247;28565;-72
2023/10/08 08:24:07;;;;;;;6.60;4.10;;;13.80;99.90;;;;;;480568;247;28962;-74
2023/10/08 08:28:16;;;;;;;6.80;4.50;;;13.90;99.90;;;;;;480590;247;28439;-72
2023/10/08 08:30:15;;;;;;;8.13;4.93;;;14.00;99.90;;;;;;480548;247;28546;-73
2023/10/08 08:32:21;;;;;;;6.63;4.10;;;14.00;99.90;;;;;;480568;247;28454;-72
2023/10/08 08:34:19;;;;;;;11.40;4.83;;;14.00;99.90;;;;;;480549;247;28686;-73
2023/10/08 08:36:21;;;;;;;5.27;3.80;;;14.10;99.90;;;;;;480603;247;28139;-72
2023/10/08 08:38:22;;;;;;;10.07;5.10;;;14.20;99.90;;;;;;480582;247;28954;-73
2023/10/08 08:40:24;;;;;;;9.83;4.47;;;14.30;99.90;;;;;;480609;247;28819;-72
2023/10/08 08:42:24;;;;;;;9.53;5.40;;;14.30;99.90;;;;;;480582;247;29048;-73
2023/10/08 08:44:26;;;;;;;7.90;5.00;;;14.40;99.90;;;;;;480590;247;28451;-74
2023/10/08 08:46:27;;;;;;;7.90;4.77;;;14.50;99.90;;;;;;480526;247;28566;-73
2023/10/08 08:48:28;;;;;;;13.00;6.03;;;14.60;99.90;;;;;;480618;247;28878;-73
2023/10/08 08:50:29;;;;;;;6.27;5.10;;;14.60;99.90;;;;;;480616;247;28762;-72
2023/10/08 08:52:30;;;;;;;9.40;4.63;;;14.70;99.90;;;;;;480609;247;28577;-72
2023/10/08 08:54:32;;;;;;;6.23;4.50;;;14.80;99.90;;;;;;480623;247;28850;-73
2023/10/08 08:56:33;;;;;;;10.53;5.33;;;14.80;99.90;;;;;;480616;247;28932;-72
2023/10/08 08:58:34;;;;;;;7.63;4.27;;;14.90;99.90;;;;;;480610;246;28886;-72
2023/10/08 09:00:37;;;;;;;8.93;4.70;;;15.00;99.90;;;;;;480632;247;30066;-72
2023/10/08 09:02:37;;;;;;;6.80;3.97;;;15.10;99.90;;;;;;480594;247;29381;-73
2023/10/08 09:04:38;;;;;;;7.97;4.90;;;15.20;99.90;;;;;;480606;247;29312;-73
2023/10/08 09:06:39;;;;;;;6.73;4.53;;;15.30;99.90;;;;;;480598;247;28874;-73
2023/10/08 09:08:45;;;;;;;6.50;4.70;;;15.40;99.90;;;;;;480583;247;28886;-72
2023/10/08 09:10:53;;;;;;;10.63;5.10;;;15.50;99.90;;;;;;480584;247;28920;-73
2023/10/08 09:12:58;;;;;;;11.90;5.20;;;15.60;99.90;;;;;;480603;247;28799;-73
2023/10/08 09:14:56;;;;;;;8.77;4.90;;;15.70;99.90;;;;;;479985;247;28921;-72
2023/10/08 09:16:57;;;;;;;7.20;4.83;;;15.80;99.90;;;;;;479870;247;28907;-73
2023/10/08 09:18:58;;;;;;;5.67;3.93;;;15.90;99.90;;;;;;480625;247;29344;-73
2023/10/08 09:21:00;;;;;;;6.40;4.23;;;16.00;99.90;;;;;;480621;247;30010;-73
2023/10/08 09:23:05;;;;;;;7.40;4.37;;;16.10;99.90;;;;;;480624;247;29321;-72
2023/10/08 09:25:07;;;;;;;6.27;4.50;;;16.00;99.90;;;;;;480592;247;28790;-73
2023/10/08 09:27:03;;;;;;;7.27;4.40;;;16.10;99.90;;;;;;480603;247;28761;-73
2023/10/08 09:29:05;;;;;;;8.13;4.57;;;16.20;99.90;;;;;;480606;247;28793;-73
2023/10/08 09:31:06;;;;;;;5.63;3.90;;;16.20;99.90;;;;;;480621;246;28873;-72
2023/10/08 09:33:07;;;;;;;6.83;4.87;;;16.20;99.90;;;;;;480617;247;28876;-73
2023/10/08 09:35:08;;;;;;;5.77;4.10;;;16.30;99.90;;;;;;480598;247;28956;-73
2023/10/08 09:37:10;;;;;;;13.83;5.10;;;16.30;99.90;;;;;;480599;247;28805;-73
2023/10/08 09:39:20;;;;;;;7.00;4.50;;;16.30;99.90;;;;;;480617;247;28833;-73
2023/10/08 09:41:12;;;;;;;9.53;4.53;;;16.40;99.90;;;;;;480581;247;28811;-74
2023/10/08 09:43:15;;;;;;;6.60;4.50;;;16.40;99.90;;;;;;480607;247;29458;-72
2023/10/08 09:45:15;;;;;;;8.07;4.47;;;16.50;99.90;;;;;;480607;247;29260;-73
2023/10/08 09:47:16;;;;;;;11.07;4.90;;;16.50;99.90;;;;;;480615;247;29318;-73
2023/10/08 09:49:18;;;;;;;8.87;4.20;;;16.60;99.90;;;;;;480605;247;28879;-73
2023/10/08 09:51:18;;;;;;;8.60;4.53;;;16.60;99.90;;;;;;480611;247;28810;-73
2023/10/08 09:53:22;;;;;;;7.60;4.60;;;16.60;99.90;;;;;;480624;246;28774;-73
2023/10/08 09:55:21;;;;;;;9.43;4.70;;;16.70;99.90;;;;;;480605;247;28874;-73
2023/10/08 09:57:26;;;;;;;6.97;4.00;;;16.80;99.90;;;;;;480611;247;28814;-72
2023/10/08 09:59:24;;;;;;;7.63;4.40;;;16.80;99.90;;;;;;480599;247;28853;-73
2023/10/08 10:01:26;;;;;;;5.43;4.10;;;16.80;99.90;;;;;;480600;247;28870;-73
2023/10/08 10:03:26;;;;;;;7.23;4.00;;;16.90;99.90;;;;;;480603;247;28756;-73
2023/10/08 10:05:27;;;;;;;8.90;4.17;;;17.00;99.90;;;;;;480633;247;29364;-73
2023/10/08 10:07:28;;;;;;;6.03;4.80;;;17.00;99.90;;;;;;480622;247;29306;-74
2023/10/08 10:09:30;;;;;;;8.23;4.77;;;17.00;99.90;;;;;;480609;247;29239;-73
2023/10/08 10:11:31;;;;;;;9.63;4.83;;;17.00;99.90;;;;;;480624;247;29298;-73
2023/10/08 10:13:32;;;;;;;7.13;4.10;;;17.00;99.90;;;;;;480628;247;28767;-73
2023/10/08 10:15:34;;;;;;;6.87;4.13;;;17.20;99.90;;;;;;480620;247;28799;-73
2023/10/08 10:17:36;;;;;;;6.73;4.10;;;17.20;99.90;;;;;;480625;247;28862;-74
2023/10/08 10:19:36;;;;;;;8.17;4.00;;;17.20;99.90;;;;;;480630;245;28758;-73
2023/10/08 10:21:37;;;;;;;9.70;5.40;;;17.20;99.90;;;;;;480639;247;28806;-73
2023/10/08 10:24:00;;;;;;;9.33;4.50;;;17.20;99.90;;;;;;480628;247;28962;-73
2023/10/08 10:25:43;;;;;;;8.53;4.30;;;17.20;99.90;;;;;;480954;246;28840;-73
2023/10/08 10:27:42;;;;;;;7.50;4.83;;;17.20;99.90;;;;;;480599;247;28803;-73
2023/10/08 10:29:48;;;;;;;6.97;4.10;;;17.20;99.90;;;;;;480627;245;28826;-72
2023/10/08 10:31:56;;;;;;;8.63;4.33;;;17.20;99.90;;;;;;480647;246;29253;-72
2023/10/08 10:33:57;;;;;;;6.60;4.60;;;17.20;99.90;;;;;;480224;247;28790;-73
2023/10/08 10:35:58;;;;;;;9.10;3.90;;;17.30;99.90;;;;;;479634;247;28917;-72
2023/10/08 10:38:03;;;;;;;11.03;4.20;;;17.40;99.90;;;;;;479774;247;28969;-72
2023/10/08 10:40:01;;;;;;;8.37;4.60;;;17.40;99.90;;;;;;479847;247;29806;-72
2023/10/08 10:42:03;;;;;;;10.60;4.40;;;17.40;99.90;;;;;;480310;247;29396;-73
2023/10/08 10:44:08;;;;;;;8.80;4.43;;;17.40;99.90;;;;;;480577;247;28901;-73
2023/10/08 10:48:25;;;;;;;6.60;3.97;;;17.50;99.90;;;;;;482901;246;28807;-72
2023/10/08 10:50:31;;;;;;;12.20;5.10;;;17.50;99.90;;;;;;475530;250;28942;-73
2023/10/08 10:52:32;;;;;;;8.57;5.50;;;17.60;99.90;;;;;;475345;250;29130;-73
2023/10/08 10:54:36;;;;;;;11.67;5.20;;;17.70;99.90;;;;;;475540;250;28892;-72
2023/10/08 10:56:40;;;;;;;6.77;4.20;;;17.70;99.90;;;;;;475335;250;28887;-73
2023/10/08 10:58:39;;;;;;;7.37;4.23;;;17.80;99.90;;;;;;475174;250;28884;-73
2023/10/08 11:02:41;;;;;;;7.60;4.33;;;17.80;99.90;;;;;;475548;250;28961;-73
2023/10/08 11:04:48;;;;;;;7.57;4.27;;;17.80;99.90;;;;;;475220;250;28907;-74
2023/10/08 11:06:46;;;;;;;7.50;4.77;;;17.80;99.90;;;;;;475335;250;29340;-73
2023/10/08 11:08:47;;;;;;;8.80;4.40;;;17.80;99.90;;;;;;475554;250;28899;-74
2023/10/08 11:10:52;;;;;;;9.50;4.90;;;17.80;99.90;;;;;;475527;250;28910;-72
2023/10/08 11:12:53;;;;;;;7.93;4.80;;;17.90;99.90;;;;;;475322;250;28944;-73
2023/10/08 11:14:56;;;;;;;15.27;4.27;;;18.00;99.90;;;;;;475360;250;28933;-72
2023/10/08 11:16:55;;;;;;;7.67;4.23;;;18.00;99.90;;;;;;475376;250;29302;-73
2023/10/08 11:19:00;;;;;;;8.17;4.50;;;18.00;99.90;;;;;;475515;250;28900;-74